Time;durP1;ratioP1;P1;durP2;ratioP2;P2;SDS_P1;SDS_P2;PMS_P1;PMS_P2;Temp;Humidity;BMP_temperature;BMP_pressure;BME280_temperature;BME280_humidity;BME280_pressure;Samples;Min_cycle;Max_cycle;Signal;HPM_P1;HPM_P2
2023/07/14 00:05:00;;;;;;;2.47;1.70;;;18.80;62.60;;;;;;20919440;28;20248;-66
2023/07/14 00:15:02;;;;;;;2.73;1.73;;;18.70;63.20;;;;;;20918448;28;20245;-68
2023/07/14 00:25:04;;;;;;;5.00;2.00;;;18.60;63.20;;;;;;20917640;28;20239;-69
2023/07/14 00:35:27;;;;;;;5.03;1.73;;;18.40;64.10;;;;;;20916866;28;20328;-63
2023/07/14 00:45:30;;;;;;;2.37;1.73;;;18.30;64.20;;;;;;20916068;28;20262;-68
2023/07/14 00:55:42;;;;;;;2.87;2.00;;;18.10;64.60;;;;;;20915321;28;20208;-67
2023/07/14 01:05:44;;;;;;;4.83;2.20;;;;;;;;;;20914789;28;20236;-65
2023/07/14 01:15:47;;;;;;;5.00;2.00;;;17.90;65.80;;;;;;20913947;28;20295;-62
2023/07/14 01:26:02;;;;;;;3.30;2.00;;;17.80;66.60;;;;;;20913151;28;20244;-68
2023/07/14 01:36:04;;;;;;;4.27;1.97;;;17.80;67.30;;;;;;20912979;28;20266;-71
2023/07/14 01:46:11;;;;;;;4.10;2.20;;;17.70;67.90;;;;;;20910758;28;20595;-65
2023/07/14 01:56:16;;;;;;;4.00;2.10;;;17.60;68.60;;;;;;20911982;28;20217;-62
2023/07/14 02:06:18;;;;;;;3.53;2.13;;;;;;;;;;20911587;28;20242;-65
2023/07/14 02:16:21;;;;;;;4.20;1.90;;;17.50;69.80;;;;;;20911100;28;20212;-66
2023/07/14 02:26:31;;;;;;;5.33;2.27;;;17.20;69.70;;;;;;20910387;28;20331;-64
2023/07/14 02:36:43;;;;;;;3.40;2.03;;;17.10;70.20;;;;;;20910204;28;20251;-66
2023/07/14 02:46:54;;;;;;;5.77;2.30;;;17.00;71.00;;;;;;20910132;28;20212;-63
2023/07/14 02:56:56;;;;;;;5.50;2.07;;;;;;;;;;20912060;28;20211;-68
2023/07/14 03:06:58;;;;;;;5.30;2.50;;;;;;;;;;20923733;28;20262;-64
2023/07/14 03:17:00;;;;;;;5.23;2.33;;;;;;;;;;20923456;28;20678;-65
2023/07/14 03:27:02;;;;;;;5.77;2.40;;;;;;;;;;20922184;28;20219;-65
2023/07/14 03:37:05;;;;;;;3.70;2.10;;;;;;;;;;20921616;28;20263;-70
2023/07/14 03:47:07;;;;;;;3.93;2.13;;;;;;;;;;20903581;28;20298;-66
2023/07/14 03:58:50;;;;;;;3.00;2.00;;;;;;;;;;21068000;27;20563;-66
2023/07/14 04:08:53;;;;;;;4.17;2.30;;;;;;;;;;21067167;28;20216;-70
2023/07/14 04:18:56;;;;;;;5.13;2.07;;;;;;;;;;21066922;28;20212;-69
2023/07/14 04:28:58;;;;;;;4.40;2.10;;;;;;;;;;21065456;28;20215;-67
2023/07/14 04:39:06;;;;;;;5.50;2.37;;;16.90;77.10;;;;;;21064875;28;20207;-67
2023/07/14 04:49:08;;;;;;;13.07;2.43;;;;;;;;;;21064140;28;20252;-64
2023/07/14 04:59:11;;;;;;;6.67;3.10;;;;;;;;;;21063326;28;20294;-66
2023/07/14 05:09:13;;;;;;;6.50;2.60;;;;;;;;;;21012072;28;20380;-70
2023/07/14 05:19:15;;;;;;;11.80;3.23;;;;;;;;;;21006202;28;20217;-63
2023/07/14 05:29:17;;;;;;;16.40;3.10;;;;;;;;;;21004250;28;20633;-65
2023/07/14 05:39:20;;;;;;;14.03;3.60;;;;;;;;;;20998230;28;20627;-66
2023/07/14 05:49:22;;;;;;;10.93;3.40;;;;;;;;;;20998574;28;20727;-69
2023/07/14 05:59:24;;;;;;;21.77;3.73;;;;;;;;;;21001129;28;20232;-68
2023/07/14 06:09:26;;;;;;;12.03;3.67;;;;;;;;;;21000246;28;20265;-69
2023/07/14 06:19:29;;;;;;;16.17;8.47;;;;;;;;;;20999363;28;20284;-70
2023/07/14 06:29:30;;;;;;;12.57;7.00;;;19.50;73.00;;;;;;20999608;28;20230;-68
2023/07/14 06:39:32;;;;;;;16.70;4.40;;;19.70;72.00;;;;;;21019763;28;20242;-69
2023/07/14 06:49:36;;;;;;;7.77;3.57;;;;;;;;;;21064819;28;20267;-69
2023/07/14 06:59:38;;;;;;;41.33;20.30;;;20.40;70.20;;;;;;21045513;28;20214;-70
2023/07/14 07:09:40;;;;;;;33.70;20.90;;;20.40;70.80;;;;;;21079616;28;20230;-67
2023/07/14 07:19:42;;;;;;;11.13;4.80;;;20.80;69.90;;;;;;21080058;28;20206;-68
2023/07/14 07:29:44;;;;;;;7.77;3.90;;;21.00;68.90;;;;;;21078642;28;20321;-68
2023/07/14 07:39:46;;;;;;;9.00;5.60;;;21.40;66.40;;;;;;21076114;28;20284;-69
2023/07/14 07:49:48;;;;;;;9.03;2.60;;;21.60;66.60;;;;;;21074193;28;20325;-66
2023/07/14 07:59:50;;;;;;;7.37;2.20;;;22.00;65.30;;;;;;21074925;28;20632;-66
2023/07/14 08:09:53;;;;;;;9.73;5.90;;;22.40;64.30;;;;;;21073668;28;20253;-70
2023/07/14 08:19:55;;;;;;;5.33;1.77;;;22.60;63.10;;;;;;21073762;28;20674;-70
2023/07/14 08:29:57;;;;;;;4.43;1.57;;;23.00;59.60;;;;;;21076370;28;20313;-69
2023/07/14 08:39:58;;;;;;;2.67;1.50;;;23.20;59.20;;;;;;21083028;28;20290;-69
2023/07/14 08:50:20;;;;;;;5.73;1.70;;;23.60;57.80;;;;;;21091738;28;20234;-69
2023/07/14 09:00:34;;;;;;;3.53;1.80;;;23.90;56.80;;;;;;21090189;28;20297;-72
2023/07/14 09:10:49;;;;;;;7.13;1.60;;;24.20;55.80;;;;;;21090366;28;20321;-68
2023/07/14 09:21:05;;;;;;;4.57;2.30;;;24.50;54.60;;;;;;21089428;28;20209;-67
2023/07/14 09:31:24;;;;;;;5.87;1.80;;;24.70;53.60;;;;;;21088694;28;20234;-67
2023/07/14 09:41:30;;;;;;;7.93;1.60;;;24.80;52.60;;;;;;21087519;28;20202;-69
2023/07/14 09:51:32;;;;;;;5.37;1.87;;;25.20;51.50;;;;;;21086848;28;20235;-68
2023/07/14 10:01:34;;;;;;;10.67;2.33;;;25.20;50.80;;;;;;21086445;28;20289;-69
2023/07/14 10:11:41;;;;;;;5.60;1.70;;;25.50;50.10;;;;;;21082017;28;20240;-68
2023/07/14 10:22:14;;;;;;;5.90;1.60;;;25.80;49.50;;;;;;21082569;28;20214;-67
2023/07/14 10:32:48;;;;;;;4.77;1.80;;;26.00;49.10;;;;;;21075261;28;20233;-68
2023/07/14 10:43:03;;;;;;;6.30;2.37;;;25.90;48.00;;;;;;21079018;28;20302;-69
2023/07/14 10:53:13;;;;;;;10.97;2.13;;;26.00;47.50;;;;;;21080256;28;20250;-69
2023/07/14 11:03:44;;;;;;;3.10;1.73;;;26.40;46.30;;;;;;21077650;28;20286;-72
2023/07/14 11:14:16;;;;;;;3.07;1.70;;;26.70;45.10;;;;;;21073968;28;20747;-68
2023/07/14 11:24:21;;;;;;;3.45;1.50;;;26.70;44.60;;;;;;21077059;28;20206;-69
2023/07/14 11:34:50;;;;;;;4.57;1.83;;;26.80;44.50;;;;;;21078840;28;20269;-67
2023/07/14 11:44:54;;;;;;;2.50;1.73;;;26.80;44.40;;;;;;21077584;28;20288;-70
2023/07/14 11:55:04;;;;;;;3.67;1.80;;;26.80;44.40;;;;;;21077333;28;20258;-68
2023/07/14 12:05:17;;;;;;;4.90;1.80;;;27.10;44.10;;;;;;21077168;28;20558;-68
2023/07/14 12:15:41;;;;;;;4.57;1.88;;;27.20;43.60;;;;;;21085258;28;20580;-66
2023/07/14 12:25:50;;;;;;;8.52;1.95;;;27.20;43.20;;;;;;21092616;28;20202;-68
2023/07/14 12:35:52;;;;;;;4.60;2.70;;;27.50;42.80;;;;;;21091846;28;20701;-67
2023/07/14 12:45:55;;;;;;;5.65;2.05;;;27.60;42.50;;;;;;21090898;28;20226;-68
2023/07/14 12:56:04;;;;;;;4.13;2.07;;;27.40;42.60;;;;;;21089278;28;20843;-67
2023/07/14 13:06:15;;;;;;;6.85;3.42;;;27.30;42.60;;;;;;21089515;28;20262;-69
2023/07/14 13:16:17;;;;;;;3.93;3.27;;;27.30;43.00;;;;;;21086961;28;20237;-68
2023/07/14 13:26:19;;;;;;;15.27;2.77;;;27.20;43.10;;;;;;21083211;28;20573;-69
2023/07/14 13:36:27;;;;;;;4.47;1.70;;;27.10;43.30;;;;;;21084303;28;20321;-68
2023/07/14 13:46:32;;;;;;;6.30;2.20;;;26.90;43.40;;;;;;21084010;28;20535;-69
2023/07/14 13:56:34;;;;;;;7.50;2.13;;;27.00;43.40;;;;;;21083483;28;20245;-68
2023/07/14 14:06:36;;;;;;;5.73;1.80;;;27.10;43.50;;;;;;21085535;28;20237;-68
2023/07/14 14:16:38;;;;;;;4.30;1.80;;;27.00;43.40;;;;;;21085634;28;20234;-67
2023/07/14 14:26:40;;;;;;;5.17;1.90;;;26.90;43.10;;;;;;21084308;28;20207;-68
2023/07/14 14:36:42;;;;;;;6.10;1.93;;;27.00;43.60;;;;;;21082421;28;20321;-68
2023/07/14 14:46:44;;;;;;;6.17;2.00;;;27.00;43.50;;;;;;21083171;28;20241;-70
2023/07/14 14:56:46;;;;;;;4.22;1.70;;;27.10;43.40;;;;;;21081902;28;20270;-68
2023/07/14 15:06:49;;;;;;;3.10;1.80;;;28.00;42.90;;;;;;21081497;28;20207;-68
2023/07/14 15:16:51;;;;;;;4.72;1.83;;;29.20;41.70;;;;;;21081020;28;20230;-72
2023/07/14 15:26:53;;;;;;;7.22;1.90;;;29.30;40.80;;;;;;21079974;28;20202;-69
2023/07/14 15:36:55;;;;;;;4.00;1.70;;;31.00;39.50;;;;;;21078385;28;20226;-69
2023/07/14 15:47:00;;;;;;;6.20;2.10;;;30.00;39.60;;;;;;21077681;28;20234;-72
2023/07/14 15:57:05;;;;;;;9.25;2.30;;;29.50;39.80;;;;;;21077630;28;20280;-69
2023/07/14 16:07:13;;;;;;;3.78;2.25;;;29.60;39.10;;;;;;21078156;28;20206;-68
2023/07/14 16:17:15;;;;;;;4.43;1.98;;;30.40;38.30;;;;;;21077606;28;20784;-69
2023/07/14 16:27:23;;;;;;;3.67;1.98;;;35.00;33.50;;;;;;21077384;28;20301;-69
2023/07/14 16:37:32;;;;;;;3.38;1.55;;;38.30;29.60;;;;;;21077226;28;20269;-69
2023/07/14 16:47:33;;;;;;;8.15;1.88;;;34.50;30.90;;;;;;21076303;28;20234;-68
2023/07/14 16:57:35;;;;;;;8.93;2.10;;;32.90;31.50;;;;;;21077769;28;20242;-69
2023/07/14 17:07:37;;;;;;;6.90;2.08;;;32.80;31.60;;;;;;21091293;28;20245;-69
2023/07/14 17:17:39;;;;;;;3.55;1.60;;;36.50;28.90;;;;;;21090480;28;20238;-69
2023/07/14 17:27:41;;;;;;;2.83;1.80;;;34.60;29.80;;;;;;21089371;28;20209;-70
2023/07/14 17:37:44;;;;;;;3.28;1.70;;;37.50;27.70;;;;;;21088510;28;20238;-67
2023/07/14 17:47:47;;;;;;;3.63;1.70;;;39.80;26.20;;;;;;21088294;28;20237;-68
2023/07/14 17:57:53;;;;;;;3.08;1.70;;;42.90;24.40;;;;;;21087167;28;20610;-68
2023/07/14 18:07:59;;;;;;;2.63;1.85;;;40.70;25.10;;;;;;21086491;28;20297;-69
2023/07/14 18:18:04;;;;;;;4.32;1.77;;;35.00;28.30;;;;;;21085734;28;20287;-68
2023/07/14 18:28:18;;;;;;;3.78;2.10;;;32.50;30.20;;;;;;21084757;28;20631;-70
2023/07/14 18:38:20;;;;;;;6.90;2.13;;;30.90;32.00;;;;;;21083761;28;20317;-71
2023/07/14 18:48:25;;;;;;;3.67;2.10;;;29.80;33.60;;;;;;21083355;28;20206;-68
2023/07/14 18:58:28;;;;;;;4.03;2.30;;;29.00;34.80;;;;;;21082086;28;20241;-73
2023/07/14 19:08:31;;;;;;;5.73;2.17;;;28.30;36.00;;;;;;21081424;28;20202;-68
2023/07/14 19:18:33;;;;;;;6.07;2.13;;;27.70;37.60;;;;;;21081307;28;20701;-68
2023/07/14 19:28:37;;;;;;;4.27;2.30;;;27.20;39.10;;;;;;21080074;28;20255;-68
2023/07/14 19:38:38;;;;;;;8.00;2.50;;;26.80;40.40;;;;;;21079484;28;20316;-69
2023/07/14 19:48:42;;;;;;;6.60;2.73;;;26.50;42.10;;;;;;21079193;28;20734;-68
2023/07/14 19:58:43;;;;;;;6.00;2.40;;;26.20;42.50;;;;;;21078888;28;20350;-66
2023/07/14 20:08:52;;;;;;;5.80;2.30;;;25.90;43.40;;;;;;21078264;28;20206;-72
2023/07/14 20:18:55;;;;;;;8.13;2.60;;;25.60;44.40;;;;;;21077943;28;20230;-71
2023/07/14 20:28:57;;;;;;;9.57;2.70;;;25.30;45.30;;;;;;21078113;28;20305;-67
2023/07/14 20:38:59;;;;;;;7.90;2.93;;;25.00;46.30;;;;;;21088948;28;20369;-71
2023/07/14 20:49:04;;;;;;;6.00;2.83;;;24.80;48.10;;;;;;21092602;28;20638;-70
2023/07/14 20:59:19;;;;;;;5.20;2.90;;;24.50;48.70;;;;;;21092288;28;20230;-69
2023/07/14 21:09:21;;;;;;;7.60;3.10;;;24.40;49.10;;;;;;21091065;28;20639;-67
2023/07/14 21:19:23;;;;;;;11.77;3.73;;;24.20;49.80;;;;;;21090383;28;20238;-68
2023/07/14 21:29:25;;;;;;;32.40;5.40;;;24.10;50.70;;;;;;21088778;28;20242;-69
2023/07/14 21:39:27;;;;;;;14.60;3.53;;;23.90;52.20;;;;;;21088976;28;20237;-68
2023/07/14 21:49:29;;;;;;;13.80;4.23;;;23.70;53.20;;;;;;21087628;28;20269;-67
2023/07/14 21:59:31;;;;;;;14.30;3.70;;;23.50;53.90;;;;;;21087440;28;20780;-66
2023/07/14 22:09:33;;;;;;;10.00;3.80;;;23.40;55.00;;;;;;21086417;28;20202;-66
2023/07/14 22:19:35;;;;;;;10.43;3.47;;;23.20;55.50;;;;;;21085515;28;20241;-66
2023/07/14 22:29:39;;;;;;;9.77;3.60;;;23.20;56.40;;;;;;21085167;28;20239;-66
2023/07/14 22:39:41;;;;;;;9.67;3.60;;;23.00;57.30;;;;;;21083843;28;20226;-66
2023/07/14 22:49:43;;;;;;;13.30;3.50;;;23.00;57.70;;;;;;21082869;28;20731;-65
2023/07/14 22:59:45;;;;;;;13.47;3.40;;;22.90;57.30;;;;;;21081884;28;20266;-65
2023/07/14 23:09:47;;;;;;;8.03;3.90;;;22.80;58.30;;;;;;21080582;28;20285;-65
2023/07/14 23:19:49;;;;;;;12.73;3.97;;;22.60;59.10;;;;;;21080974;28;20246;-66
2023/07/14 23:29:52;;;;;;;9.87;3.50;;;22.50;59.60;;;;;;21080789;28;20202;-66
2023/07/14 23:39:54;;;;;;;8.27;3.30;;;22.40;60.30;;;;;;21079894;28;20696;-67
2023/07/14 23:49:55;;;;;;;9.23;3.53;;;22.20;61.10;;;;;;21079046;28;20321;-69
2023/07/14 23:59:57;;;;;;;9.27;3.10;;;22.00;61.20;;;;;;21079004;28;20321;-67
